sensor_id;sensor_type;location;lat;lon;timestamp;pressure;altitude;pressure_sealevel;temperature;humidity
31483;BME280;18103;52.246;8.052;2023-07-13T00:00:29;100166.81;;;17.79;72.70
31483;BME280;18103;52.246;8.052;2023-07-13T00:02:57;100166.00;;;17.70;73.31
31483;BME280;18103;52.246;8.052;2023-07-13T00:05:25;100170.03;;;17.66;73.57
31483;BME280;18103;52.246;8.052;2023-07-13T00:07:51;100175.53;;;17.65;73.95
31483;BME280;18103;52.246;8.052;2023-07-13T00:10:17;100172.88;;;17.65;73.57
31483;BME280;18103;52.246;8.052;2023-07-13T00:12:43;100178.88;;;17.58;73.57
31483;BME280;18103;52.246;8.052;2023-07-13T00:15:24;100183.22;;;17.59;73.57
31483;BME280;18103;52.246;8.052;2023-07-13T00:17:53;100185.41;;;17.56;74.05
31483;BME280;18103;52.246;8.052;2023-07-13T00:20:24;100183.56;;;17.48;74.28
31483;BME280;18103;52.246;8.052;2023-07-13T00:22:51;100182.94;;;17.46;74.13
31483;BME280;18103;52.246;8.052;2023-07-13T00:25:19;100181.44;;;17.43;73.81
31483;BME280;18103;52.246;8.052;2023-07-13T00:27:47;100177.25;;;17.41;73.48
31483;BME280;18103;52.246;8.052;2023-07-13T00:30:14;100176.56;;;17.39;72.88
31483;BME280;18103;52.246;8.052;2023-07-13T00:32:39;100187.59;;;17.44;73.18
31483;BME280;18103;52.246;8.052;2023-07-13T00:35:05;100184.91;;;17.44;72.94
31483;BME280;18103;52.246;8.052;2023-07-13T00:37:31;100189.91;;;17.39;73.33
31483;BME280;18103;52.246;8.052;2023-07-13T00:39:57;100191.25;;;17.35;73.28
31483;BME280;18103;52.246;8.052;2023-07-13T00:42:24;100184.28;;;17.25;73.66
31483;BME280;18103;52.246;8.052;2023-07-13T00:47:36;100188.44;;;17.20;73.78
31483;BME280;18103;52.246;8.052;2023-07-13T00:50:04;100185.28;;;17.24;73.30
31483;BME280;18103;52.246;8.052;2023-07-13T00:52:38;100186.09;;;17.25;73.70
31483;BME280;18103;52.246;8.052;2023-07-13T00:55:09;100181.09;;;17.22;73.76
31483;BME280;18103;52.246;8.052;2023-07-13T00:57:36;100184.28;;;17.17;74.16
31483;BME280;18103;52.246;8.052;2023-07-13T01:00:04;100187.94;;;17.16;73.84
31483;BME280;18103;52.246;8.052;2023-07-13T01:02:35;100187.59;;;17.19;73.47
31483;BME280;18103;52.246;8.052;2023-07-13T01:05:16;100180.78;;;17.17;73.50
31483;BME280;18103;52.246;8.052;2023-07-13T01:07:45;100178.78;;;17.10;73.58
31483;BME280;18103;52.246;8.052;2023-07-13T01:10:13;100185.94;;;17.02;74.28
31483;BME280;18103;52.246;8.052;2023-07-13T01:12:38;100189.28;;;17.04;74.17
31483;BME280;18103;52.246;8.052;2023-07-13T01:15:36;100189.94;;;16.98;74.59
31483;BME280;18103;52.246;8.052;2023-07-13T01:18:04;100191.28;;;16.93;74.69
31483;BME280;18103;52.246;8.052;2023-07-13T01:20:30;100185.59;;;16.88;74.88
31483;BME280;18103;52.246;8.052;2023-07-13T01:22:56;100186.75;;;16.86;73.35
31483;BME280;18103;52.246;8.052;2023-07-13T01:25:22;100179.41;;;16.88;74.22
31483;BME280;18103;52.246;8.052;2023-07-13T01:27:49;100180.56;;;16.85;74.76
31483;BME280;18103;52.246;8.052;2023-07-13T01:30:15;100182.63;;;16.91;73.66
31483;BME280;18103;52.246;8.052;2023-07-13T01:32:40;100171.63;;;16.95;73.64
31483;BME280;18103;52.246;8.052;2023-07-13T01:35:08;100163.28;;;16.89;74.01
31483;BME280;18103;52.246;8.052;2023-07-13T01:37:33;100159.09;;;16.87;74.13
31483;BME280;18103;52.246;8.052;2023-07-13T01:40:03;100161.91;;;16.85;74.56
31483;BME280;18103;52.246;8.052;2023-07-13T01:42:29;100167.78;;;16.89;73.68
31483;BME280;18103;52.246;8.052;2023-07-13T01:44:57;100162.09;;;16.84;74.28
31483;BME280;18103;52.246;8.052;2023-07-13T01:47:25;100160.75;;;16.80;74.08
31483;BME280;18103;52.246;8.052;2023-07-13T01:49:51;100161.56;;;16.80;74.16
31483;BME280;18103;52.246;8.052;2023-07-13T01:52:17;100161.09;;;16.85;74.26
31483;BME280;18103;52.246;8.052;2023-07-13T01:54:44;100161.25;;;16.83;73.87
31483;BME280;18103;52.246;8.052;2023-07-13T01:57:12;100164.25;;;16.80;74.01
31483;BME280;18103;52.246;8.052;2023-07-13T01:59:40;100164.91;;;16.82;73.34
31483;BME280;18103;52.246;8.052;2023-07-13T02:02:05;100164.59;;;16.85;73.33
31483;BME280;18103;52.246;8.052;2023-07-13T02:04:31;100166.25;;;16.78;73.67
31483;BME280;18103;52.246;8.052;2023-07-13T02:06:56;100170.41;;;16.81;73.37
31483;BME280;18103;52.246;8.052;2023-07-13T02:09:24;100167.91;;;16.71;73.41
31483;BME280;18103;52.246;8.052;2023-07-13T02:11:52;100169.72;;;16.70;73.30
31483;BME280;18103;52.246;8.052;2023-07-13T02:14:19;100171.75;;;16.76;73.34
31483;BME280;18103;52.246;8.052;2023-07-13T02:16:47;100173.25;;;16.79;73.16
31483;BME280;18103;52.246;8.052;2023-07-13T02:19:13;100183.59;;;16.82;72.84
31483;BME280;18103;52.246;8.052;2023-07-13T02:21:39;100176.25;;;16.84;73.43
31483;BME280;18103;52.246;8.052;2023-07-13T02:24:04;100185.06;;;16.76;73.18
31483;BME280;18103;52.246;8.052;2023-07-13T02:26:30;100178.91;;;16.76;72.91
31483;BME280;18103;52.246;8.052;2023-07-13T02:29:00;100181.41;;;16.69;73.82
31483;BME280;18103;52.246;8.052;2023-07-13T02:31:26;100180.25;;;16.72;73.12
31483;BME280;18103;52.246;8.052;2023-07-13T02:33:51;100177.88;;;16.69;74.07
31483;BME280;18103;52.246;8.052;2023-07-13T02:36:19;100184.41;;;16.66;73.61
31483;BME280;18103;52.246;8.052;2023-07-13T02:38:49;100182.22;;;16.70;73.30
31483;BME280;18103;52.246;8.052;2023-07-13T02:41:17;100186.06;;;16.67;73.55
31483;BME280;18103;52.246;8.052;2023-07-13T02:43:45;100182.22;;;16.62;73.66
31483;BME280;18103;52.246;8.052;2023-07-13T02:46:13;100184.38;;;16.58;73.74
31483;BME280;18103;52.246;8.052;2023-07-13T02:48:39;100177.88;;;16.69;74.50
31483;BME280;18103;52.246;8.052;2023-07-13T02:51:05;100175.22;;;16.69;73.29
31483;BME280;18103;52.246;8.052;2023-07-13T02:53:31;100174.91;;;16.72;73.06
31483;BME280;18103;52.246;8.052;2023-07-13T02:55:57;100175.41;;;16.75;73.09
31483;BME280;18103;52.246;8.052;2023-07-13T02:58:22;100181.06;;;16.72;72.78
31483;BME280;18103;52.246;8.052;2023-07-13T03:00:48;100176.56;;;16.73;73.47
31483;BME280;18103;52.246;8.052;2023-07-13T03:03:15;100179.75;;;16.76;72.89
31483;BME280;18103;52.246;8.052;2023-07-13T03:05:43;100184.38;;;16.74;72.81
31483;BME280;18103;52.246;8.052;2023-07-13T03:08:11;100188.41;;;16.87;71.84
31483;BME280;18103;52.246;8.052;2023-07-13T03:10:36;100193.59;;;16.88;72.09
31483;BME280;18103;52.246;8.052;2023-07-13T03:13:03;100185.59;;;16.88;71.77
31483;BME280;18103;52.246;8.052;2023-07-13T03:15:28;100184.63;;;16.89;71.67
31483;BME280;18103;52.246;8.052;2023-07-13T03:17:56;100186.75;;;16.86;72.23
31483;BME280;18103;52.246;8.052;2023-07-13T03:20:22;100195.41;;;16.88;71.57
31483;BME280;18103;52.246;8.052;2023-07-13T03:22:47;100188.75;;;16.84;71.97
31483;BME280;18103;52.246;8.052;2023-07-13T03:25:13;100194.91;;;16.84;72.43
31483;BME280;18103;52.246;8.052;2023-07-13T03:27:40;100192.75;;;16.80;72.34
31483;BME280;18103;52.246;8.052;2023-07-13T03:30:06;100190.75;;;16.82;72.57
31483;BME280;18103;52.246;8.052;2023-07-13T03:32:34;100198.63;;;16.91;71.45
31483;BME280;18103;52.246;8.052;2023-07-13T03:35:00;100192.59;;;16.89;71.53
31483;BME280;18103;52.246;8.052;2023-07-13T03:37:26;100201.91;;;16.85;71.27
31483;BME280;18103;52.246;8.052;2023-07-13T03:39:51;100197.44;;;16.86;71.39
31483;BME280;18103;52.246;8.052;2023-07-13T03:42:19;100201.25;;;16.83;71.36
31483;BME280;18103;52.246;8.052;2023-07-13T03:44:44;100209.06;;;16.76;72.37
31483;BME280;18103;52.246;8.052;2023-07-13T03:47:15;100203.38;;;16.71;72.12
31483;BME280;18103;52.246;8.052;2023-07-13T03:49:41;100214.38;;;16.68;72.81
31483;BME280;18103;52.246;8.052;2023-07-13T03:52:06;100212.88;;;16.66;72.52
31483;BME280;18103;52.246;8.052;2023-07-13T03:54:34;100213.84;;;16.65;73.16
31483;BME280;18103;52.246;8.052;2023-07-13T03:57:02;100216.22;;;16.68;72.58
31483;BME280;18103;52.246;8.052;2023-07-13T03:59:29;100214.03;;;16.63;72.67
31483;BME280;18103;52.246;8.052;2023-07-13T04:01:54;100210.53;;;16.63;72.96
31483;BME280;18103;52.246;8.052;2023-07-13T04:04:20;100222.19;;;16.62;72.72
31483;BME280;18103;52.246;8.052;2023-07-13T04:06:46;100215.19;;;16.60;72.99
31483;BME280;18103;52.246;8.052;2023-07-13T04:09:13;100221.38;;;16.61;73.33
31483;BME280;18103;52.246;8.052;2023-07-13T04:11:39;100226.38;;;16.64;72.22
31483;BME280;18103;52.246;8.052;2023-07-13T04:14:04;100229.53;;;16.59;73.01
31483;BME280;18103;52.246;8.052;2023-07-13T04:16:32;100233.84;;;16.52;73.24
31483;BME280;18103;52.246;8.052;2023-07-13T04:18:57;100238.34;;;16.60;72.78
31483;BME280;18103;52.246;8.052;2023-07-13T04:21:27;100233.53;;;16.64;72.68
31483;BME280;18103;52.246;8.052;2023-07-13T04:23:56;100246.50;;;16.58;73.27
31483;BME280;18103;52.246;8.052;2023-07-13T04:26:21;100247.16;;;16.60;72.94
31483;BME280;18103;52.246;8.052;2023-07-13T04:28:52;100248.22;;;16.68;72.27
31483;BME280;18103;52.246;8.052;2023-07-13T04:31:18;100235.69;;;16.68;72.57
31483;BME280;18103;52.246;8.052;2023-07-13T04:33:43;100241.69;;;16.70;72.51
31483;BME280;18103;52.246;8.052;2023-07-13T04:36:09;100237.84;;;16.65;72.48
31483;BME280;18103;52.246;8.052;2023-07-13T04:38:34;100238.72;;;16.73;71.76
31483;BME280;18103;52.246;8.052;2023-07-13T04:41:03;100242.53;;;16.71;71.87
31483;BME280;18103;52.246;8.052;2023-07-13T04:43:29;100238.06;;;16.80;71.41
31483;BME280;18103;52.246;8.052;2023-07-13T04:45:54;100235.69;;;16.68;72.44
31483;BME280;18103;52.246;8.052;2023-07-13T04:48:20;100242.72;;;16.77;71.77
31483;BME280;18103;52.246;8.052;2023-07-13T04:50:46;100239.53;;;16.74;71.73
31483;BME280;18103;52.246;8.052;2023-07-13T04:53:17;100242.88;;;16.68;72.64
31483;BME280;18103;52.246;8.052;2023-07-13T04:55:42;100249.88;;;16.77;71.77
31483;BME280;18103;52.246;8.052;2023-07-13T04:58:08;100238.19;;;16.70;72.10
31483;BME280;18103;52.246;8.052;2023-07-13T05:00:35;100247.22;;;16.85;71.81
31483;BME280;18103;52.246;8.052;2023-07-13T05:03:03;100255.69;;;16.72;72.09
31483;BME280;18103;52.246;8.052;2023-07-13T05:05:28;100251.00;;;16.58;72.30
31483;BME280;18103;52.246;8.052;2023-07-13T05:07:54;100253.84;;;16.65;72.60
31483;BME280;18103;52.246;8.052;2023-07-13T05:10:19;100261.84;;;16.73;72.34
31483;BME280;18103;52.246;8.052;2023-07-13T05:12:45;100264.53;;;16.73;72.43
31483;BME280;18103;52.246;8.052;2023-07-13T05:15:11;100261.84;;;16.73;72.52
31483;BME280;18103;52.246;8.052;2023-07-13T05:17:39;100257.88;;;16.77;72.64
31483;BME280;18103;52.246;8.052;2023-07-13T05:20:07;100258.06;;;16.84;72.26
31483;BME280;18103;52.246;8.052;2023-07-13T05:22:32;100257.41;;;16.82;73.40
31483;BME280;18103;52.246;8.052;2023-07-13T05:25:00;100260.44;;;16.95;72.79
31483;BME280;18103;52.246;8.052;2023-07-13T05:27:28;100264.81;;;17.04;72.85
31483;BME280;18103;52.246;8.052;2023-07-13T05:29:53;100266.59;;;17.04;72.71
31483;BME280;18103;52.246;8.052;2023-07-13T05:32:21;100270.44;;;17.09;72.43
31483;BME280;18103;52.246;8.052;2023-07-13T05:34:49;100272.63;;;17.06;72.59
31483;BME280;18103;52.246;8.052;2023-07-13T05:37:18;100271.47;;;17.17;72.71
31483;BME280;18103;52.246;8.052;2023-07-13T05:39:45;100272.97;;;17.27;72.49
31483;BME280;18103;52.246;8.052;2023-07-13T05:42:13;100262.78;;;17.15;73.22
31483;BME280;18103;52.246;8.052;2023-07-13T05:44:39;100266.28;;;17.23;72.32
31483;BME280;18103;52.246;8.052;2023-07-13T05:47:04;100273.81;;;17.36;72.57
31483;BME280;18103;52.246;8.052;2023-07-13T05:49:33;100271.28;;;17.35;72.84
31483;BME280;18103;52.246;8.052;2023-07-13T05:51:58;100278.50;;;17.51;72.58
31483;BME280;18103;52.246;8.052;2023-07-13T05:54:24;100283.66;;;17.52;72.41
31483;BME280;18103;52.246;8.052;2023-07-13T05:56:49;100285.97;;;17.47;72.71
31483;BME280;18103;52.246;8.052;2023-07-13T05:59:17;100292.66;;;17.43;72.29
31483;BME280;18103;52.246;8.052;2023-07-13T06:01:42;100291.84;;;17.51;71.53
31483;BME280;18103;52.246;8.052;2023-07-13T06:04:08;100279.81;;;17.55;71.50
31483;BME280;18103;52.246;8.052;2023-07-13T06:06:33;100289.50;;;17.56;71.66
31483;BME280;18103;52.246;8.052;2023-07-13T06:08:58;100291.66;;;17.52;71.75
31483;BME280;18103;52.246;8.052;2023-07-13T06:11:26;100295.00;;;17.46;72.36
31483;BME280;18103;52.246;8.052;2023-07-13T06:13:55;100302.16;;;17.54;72.08
31483;BME280;18103;52.246;8.052;2023-07-13T06:16:23;100303.50;;;17.50;71.94
31483;BME280;18103;52.246;8.052;2023-07-13T06:18:54;100304.50;;;17.65;71.23
31483;BME280;18103;52.246;8.052;2023-07-13T06:21:22;100303.00;;;17.54;72.02
31483;BME280;18103;52.246;8.052;2023-07-13T06:23:50;100302.00;;;17.55;72.52
31483;BME280;18103;52.246;8.052;2023-07-13T06:26:16;100314.00;;;17.68;72.35
31483;BME280;18103;52.246;8.052;2023-07-13T06:28:41;100301.47;;;17.76;72.04
31483;BME280;18103;52.246;8.052;2023-07-13T06:31:09;100299.50;;;17.78;72.25
31483;BME280;18103;52.246;8.052;2023-07-13T06:33:37;100307.16;;;17.98;72.13
31483;BME280;18103;52.246;8.052;2023-07-13T06:36:04;100312.16;;;18.09;71.70
31483;BME280;18103;52.246;8.052;2023-07-13T06:38:30;100312.81;;;18.03;72.27
31483;BME280;18103;52.246;8.052;2023-07-13T06:40:58;100310.28;;;18.18;71.71
31483;BME280;18103;52.246;8.052;2023-07-13T06:43:23;100310.09;;;18.20;71.73
31483;BME280;18103;52.246;8.052;2023-07-13T06:45:50;100313.47;;;18.13;71.93
31483;BME280;18103;52.246;8.052;2023-07-13T06:48:17;100319.75;;;18.37;71.02
31483;BME280;18103;52.246;8.052;2023-07-13T06:50:46;100314.44;;;18.69;70.69
31483;BME280;18103;52.246;8.052;2023-07-13T06:53:12;100316.66;;;18.57;70.90
31483;BME280;18103;52.246;8.052;2023-07-13T06:55:40;100320.28;;;18.72;70.60
31483;BME280;18103;52.246;8.052;2023-07-13T06:58:05;100320.53;;;18.54;71.11
31483;BME280;18103;52.246;8.052;2023-07-13T07:00:34;100328.72;;;18.53;71.46
31483;BME280;18103;52.246;8.052;2023-07-13T07:02:59;100333.91;;;18.86;71.23
31483;BME280;18103;52.246;8.052;2023-07-13T07:05:29;100324.03;;;18.94;70.76
31483;BME280;18103;52.246;8.052;2023-07-13T07:07:57;100333.50;;;19.05;70.68
31483;BME280;18103;52.246;8.052;2023-07-13T07:10:22;100331.78;;;19.12;70.61
31483;BME280;18103;52.246;8.052;2023-07-13T07:12:48;100334.53;;;19.04;69.29
31483;BME280;18103;52.246;8.052;2023-07-13T07:15:13;100345.94;;;19.21;69.96
31483;BME280;18103;52.246;8.052;2023-07-13T07:17:41;100335.44;;;19.20;70.01
31483;BME280;18103;52.246;8.052;2023-07-13T07:20:07;100338.16;;;19.35;68.89
31483;BME280;18103;52.246;8.052;2023-07-13T07:22:33;100340.00;;;19.34;69.00
31483;BME280;18103;52.246;8.052;2023-07-13T07:24:59;100339.47;;;19.39;69.04
31483;BME280;18103;52.246;8.052;2023-07-13T07:27:25;100340.66;;;19.59;67.73
31483;BME280;18103;52.246;8.052;2023-07-13T07:29:53;100338.47;;;19.63;68.26
31483;BME280;18103;52.246;8.052;2023-07-13T07:32:19;100340.16;;;19.56;68.67
31483;BME280;18103;52.246;8.052;2023-07-13T07:34:45;100329.31;;;19.72;68.67
31483;BME280;18103;52.246;8.052;2023-07-13T07:37:12;100335.31;;;19.82;67.97
31483;BME280;18103;52.246;8.052;2023-07-13T07:39:38;100346.69;;;19.99;67.43
31483;BME280;18103;52.246;8.052;2023-07-13T07:42:03;100345.03;;;19.98;66.88
31483;BME280;18103;52.246;8.052;2023-07-13T07:44:32;100341.34;;;19.99;67.74
31483;BME280;18103;52.246;8.052;2023-07-13T07:47:01;100343.00;;;19.77;68.27
31483;BME280;18103;52.246;8.052;2023-07-13T07:49:27;100341.25;;;19.46;68.51
31483;BME280;18103;52.246;8.052;2023-07-13T07:51:55;100340.66;;;19.59;68.24
31483;BME280;18103;52.246;8.052;2023-07-13T07:54:20;100339.66;;;19.98;67.82
31483;BME280;18103;52.246;8.052;2023-07-13T07:56:46;100343.47;;;20.04;68.18
31483;BME280;18103;52.246;8.052;2023-07-13T07:59:11;100344.28;;;20.05;68.36
31483;BME280;18103;52.246;8.052;2023-07-13T08:01:39;100345.59;;;19.94;67.70
31483;BME280;18103;52.246;8.052;2023-07-13T08:04:05;100338.28;;;19.41;67.65
31483;BME280;18103;52.246;8.052;2023-07-13T08:06:32;100340.84;;;19.58;67.75
31483;BME280;18103;52.246;8.052;2023-07-13T08:08:58;100338.75;;;19.45;67.94
31483;BME280;18103;52.246;8.052;2023-07-13T08:11:24;100333.81;;;19.80;68.23
31483;BME280;18103;52.246;8.052;2023-07-13T08:13:50;100335.88;;;19.70;67.11
31483;BME280;18103;52.246;8.052;2023-07-13T08:16:15;100334.69;;;19.95;67.31
31483;BME280;18103;52.246;8.052;2023-07-13T08:18:41;100335.78;;;20.16;66.63
31483;BME280;18103;52.246;8.052;2023-07-13T08:21:07;100331.72;;;19.90;67.13
31483;BME280;18103;52.246;8.052;2023-07-13T08:23:33;100334.03;;;19.70;67.56
31483;BME280;18103;52.246;8.052;2023-07-13T08:25:59;100336.66;;;19.78;67.43
31483;BME280;18103;52.246;8.052;2023-07-13T08:28:26;100335.50;;;19.96;66.84
31483;BME280;18103;52.246;8.052;2023-07-13T08:30:54;100335.81;;;19.78;66.94
31483;BME280;18103;52.246;8.052;2023-07-13T08:33:21;100337.00;;;20.13;66.61
31483;BME280;18103;52.246;8.052;2023-07-13T08:35:51;100336.28;;;20.20;65.75
31483;BME280;18103;52.246;8.052;2023-07-13T08:38:17;100340.16;;;20.02;66.29
31483;BME280;18103;52.246;8.052;2023-07-13T08:40:44;100340.22;;;20.09;66.26
31483;BME280;18103;52.246;8.052;2023-07-13T08:43:16;100342.72;;;20.10;66.04
31483;BME280;18103;52.246;8.052;2023-07-13T08:45:59;100337.94;;;20.21;65.71
31483;BME280;18103;52.246;8.052;2023-07-13T08:48:33;100332.41;;;20.22;65.40
31483;BME280;18103;52.246;8.052;2023-07-13T08:51:07;100328.91;;;20.22;65.38
31483;BME280;18103;52.246;8.052;2023-07-13T08:53:42;100333.22;;;20.23;66.49
31483;BME280;18103;52.246;8.052;2023-07-13T08:56:24;100329.53;;;20.39;64.48
31483;BME280;18103;52.246;8.052;2023-07-13T08:58:57;100330.81;;;20.58;63.09
31483;BME280;18103;52.246;8.052;2023-07-13T09:01:33;100332.84;;;20.56;63.89
31483;BME280;18103;52.246;8.052;2023-07-13T09:15:05;100329.09;;;21.01;63.44
31483;BME280;18103;52.246;8.052;2023-07-13T09:17:49;100336.66;;;20.76;63.49
31483;BME280;18103;52.246;8.052;2023-07-13T09:23:03;100334.41;;;21.16;63.37
31483;BME280;18103;52.246;8.052;2023-07-13T09:25:33;100331.03;;;20.93;63.50
31483;BME280;18103;52.246;8.052;2023-07-13T09:28:22;100341.78;;;20.93;63.45
31483;BME280;18103;52.246;8.052;2023-07-13T09:33:40;100329.00;;;21.31;63.02
31483;BME280;18103;52.246;8.052;2023-07-13T09:38:57;100336.19;;;21.09;60.99
31483;BME280;18103;52.246;8.052;2023-07-13T09:41:35;100339.91;;;21.30;61.52
31483;BME280;18103;52.246;8.052;2023-07-13T09:46:34;100340.53;;;21.10;61.70
31483;BME280;18103;52.246;8.052;2023-07-13T09:49:00;100334.72;;;21.07;61.07
31483;BME280;18103;52.246;8.052;2023-07-13T09:51:25;100341.41;;;21.32;61.70
31483;BME280;18103;52.246;8.052;2023-07-13T09:53:53;100339.59;;;21.40;61.64
31483;BME280;18103;52.246;8.052;2023-07-13T09:56:24;100346.59;;;21.56;60.85
31483;BME280;18103;52.246;8.052;2023-07-13T09:58:52;100342.75;;;21.65;60.64
31483;BME280;18103;52.246;8.052;2023-07-13T10:01:40;100341.00;;;21.79;60.41
31483;BME280;18103;52.246;8.052;2023-07-13T10:04:16;100351.22;;;21.47;59.28
31483;BME280;18103;52.246;8.052;2023-07-13T10:06:46;100347.19;;;21.36;58.74
31483;BME280;18103;52.246;8.052;2023-07-13T10:09:16;100357.53;;;21.76;59.44
31483;BME280;18103;52.246;8.052;2023-07-13T10:11:42;100347.72;;;21.90;58.94
31483;BME280;18103;52.246;8.052;2023-07-13T10:16:35;100339.69;;;21.96;58.82
31483;BME280;18103;52.246;8.052;2023-07-13T10:19:24;100347.06;;;22.16;59.01
31483;BME280;18103;52.246;8.052;2023-07-13T10:22:02;100354.34;;;22.22;58.45
31483;BME280;18103;52.246;8.052;2023-07-13T10:24:36;100341.50;;;21.89;58.97
31483;BME280;18103;52.246;8.052;2023-07-13T10:27:20;100351.69;;;21.72;58.55
31483;BME280;18103;52.246;8.052;2023-07-13T10:30:13;100350.88;;;22.00;59.58
31483;BME280;18103;52.246;8.052;2023-07-13T10:32:43;100357.56;;;21.82;57.86
31483;BME280;18103;52.246;8.052;2023-07-13T10:35:12;100359.16;;;21.77;58.29
31483;BME280;18103;52.246;8.052;2023-07-13T10:37:45;100352.84;;;21.84;58.91
31483;BME280;18103;52.246;8.052;2023-07-13T10:40:19;100358.50;;;21.96;58.60
31483;BME280;18103;52.246;8.052;2023-07-13T10:42:49;100366.59;;;21.75;58.66
31483;BME280;18103;52.246;8.052;2023-07-13T10:45:17;100370.88;;;21.91;59.04
31483;BME280;18103;52.246;8.052;2023-07-13T10:47:44;100370.03;;;21.90;58.75
31483;BME280;18103;52.246;8.052;2023-07-13T10:50:19;100361.03;;;22.04;58.91
31483;BME280;18103;52.246;8.052;2023-07-13T10:52:48;100359.69;;;21.87;58.40
31483;BME280;18103;52.246;8.052;2023-07-13T10:58:21;100358.69;;;22.23;58.39
31483;BME280;18103;52.246;8.052;2023-07-13T11:01:09;100363.16;;;22.09;58.54
31483;BME280;18103;52.246;8.052;2023-07-13T11:21:18;100354.81;;;22.67;56.56
31483;BME280;18103;52.246;8.052;2023-07-13T11:23:45;100361.44;;;22.65;56.28
31483;BME280;18103;52.246;8.052;2023-07-13T11:26:50;100367.25;;;22.68;55.71
31483;BME280;18103;52.246;8.052;2023-07-13T11:31:58;100354.94;;;22.52;55.59
31483;BME280;18103;52.246;8.052;2023-07-13T11:34:34;100358.94;;;22.63;56.06
31483;BME280;18103;52.246;8.052;2023-07-13T11:37:01;100355.69;;;22.68;55.26
31483;BME280;18103;52.246;8.052;2023-07-13T11:39:32;100368.63;;;22.99;55.98
31483;BME280;18103;52.246;8.052;2023-07-13T11:42:04;100360.09;;;22.96;53.86
31483;BME280;18103;52.246;8.052;2023-07-13T11:44:33;100366.59;;;22.66;54.59
31483;BME280;18103;52.246;8.052;2023-07-13T11:47:11;100356.91;;;22.72;55.31
31483;BME280;18103;52.246;8.052;2023-07-13T11:49:49;100362.06;;;23.15;55.25
31483;BME280;18103;52.246;8.052;2023-07-13T11:52:18;100355.25;;;23.19;54.33
31483;BME280;18103;52.246;8.052;2023-07-13T11:54:49;100357.16;;;23.32;54.63
31483;BME280;18103;52.246;8.052;2023-07-13T11:57:33;100362.97;;;23.56;54.55
31483;BME280;18103;52.246;8.052;2023-07-13T12:00:09;100359.66;;;23.54;54.94
31483;BME280;18103;52.246;8.052;2023-07-13T12:02:41;100352.81;;;23.51;54.53
31483;BME280;18103;52.246;8.052;2023-07-13T12:05:11;100354.44;;;23.39;53.64
31483;BME280;18103;52.246;8.052;2023-07-13T12:07:40;100358.38;;;23.36;53.31
31483;BME280;18103;52.246;8.052;2023-07-13T12:10:26;100357.59;;;23.49;53.79
31483;BME280;18103;52.246;8.052;2023-07-13T12:15:20;100365.59;;;23.16;53.61
31483;BME280;18103;52.246;8.052;2023-07-13T12:17:49;100371.66;;;23.31;53.53
31483;BME280;18103;52.246;8.052;2023-07-13T12:20:24;100362.13;;;23.49;51.94
31483;BME280;18103;52.246;8.052;2023-07-13T12:22:51;100360.69;;;23.39;51.84
31483;BME280;18103;52.246;8.052;2023-07-13T12:25:18;100364.19;;;23.33;52.46
31483;BME280;18103;52.246;8.052;2023-07-13T12:27:48;100364.63;;;23.44;52.59
31483;BME280;18103;52.246;8.052;2023-07-13T12:30:28;100371.66;;;23.31;52.75
31483;BME280;18103;52.246;8.052;2023-07-13T12:33:07;100363.16;;;23.34;52.16
31483;BME280;18103;52.246;8.052;2023-07-13T12:35:47;100366.31;;;22.89;51.35
31483;BME280;18103;52.246;8.052;2023-07-13T12:38:13;100378.78;;;22.97;52.85
31483;BME280;18103;52.246;8.052;2023-07-13T12:40:40;100377.75;;;23.05;52.27
31483;BME280;18103;52.246;8.052;2023-07-13T12:43:12;100377.09;;;22.96;51.71
31483;BME280;18103;52.246;8.052;2023-07-13T12:46:36;100388.13;;;22.66;54.15
31483;BME280;18103;52.246;8.052;2023-07-13T12:48:43;100422.19;;;22.24;54.93
31483;BME280;18103;52.246;8.052;2023-07-13T12:51:12;100448.25;;;21.95;57.29
31483;BME280;18103;52.246;8.052;2023-07-13T12:53:49;100458.66;;;21.62;57.98
31483;BME280;18103;52.246;8.052;2023-07-13T12:56:26;100474.09;;;21.23;60.16
31483;BME280;18103;52.246;8.052;2023-07-13T12:59:03;100476.63;;;21.10;61.19
31483;BME280;18103;52.246;8.052;2023-07-13T13:01:33;100481.88;;;20.73;63.90
31483;BME280;18103;52.246;8.052;2023-07-13T13:04:02;100479.94;;;20.82;63.61
31483;BME280;18103;52.246;8.052;2023-07-13T13:06:34;100480.97;;;20.81;65.24
31483;BME280;18103;52.246;8.052;2023-07-13T13:09:11;100461.34;;;20.95;65.81
31483;BME280;18103;52.246;8.052;2023-07-13T13:11:40;100452.09;;;20.83;65.89
31483;BME280;18103;52.246;8.052;2023-07-13T13:14:08;100451.72;;;20.71;67.54
31483;BME280;18103;52.246;8.052;2023-07-13T13:16:54;100462.09;;;20.74;67.40
31483;BME280;18103;52.246;8.052;2023-07-13T13:19:23;100465.06;;;20.79;66.57
31483;BME280;18103;52.246;8.052;2023-07-13T13:21:49;100465.41;;;20.91;66.48
31483;BME280;18103;52.246;8.052;2023-07-13T13:24:20;100460.22;;;20.90;65.13
31483;BME280;18103;52.246;8.052;2023-07-13T13:26:46;100455.53;;;20.92;64.50
31483;BME280;18103;52.246;8.052;2023-07-13T13:29:21;100461.25;;;21.03;64.91
31483;BME280;18103;52.246;8.052;2023-07-13T13:31:50;100463.19;;;20.95;63.78
31483;BME280;18103;52.246;8.052;2023-07-13T13:34:19;100459.56;;;21.17;62.79
31483;BME280;18103;52.246;8.052;2023-07-13T13:36:49;100462.84;;;21.34;62.50
31483;BME280;18103;52.246;8.052;2023-07-13T13:39:25;100461.53;;;21.45;62.21
31483;BME280;18103;52.246;8.052;2023-07-13T13:41:53;100460.72;;;21.45;62.21
31483;BME280;18103;52.246;8.052;2023-07-13T13:44:20;100474.22;;;21.51;62.44
31483;BME280;18103;52.246;8.052;2023-07-13T13:46:51;100479.53;;;21.45;64.46
31483;BME280;18103;52.246;8.052;2023-07-13T13:49:24;100492.16;;;21.14;64.03
31483;BME280;18103;52.246;8.052;2023-07-13T13:51:53;100490.38;;;21.07;65.70